sensor_id;sensor_type;location;lat;lon;timestamp;P1;durP1;ratioP1;P2;durP2;ratioP2
61915;SDS011;47868;51.326;6.550;2023-02-15T00:01:26;32.40;;;23.40;;
61915;SDS011;47868;51.326;6.550;2023-02-15T00:03:52;34.15;;;22.27;;
61915;SDS011;47868;51.326;6.550;2023-02-15T00:06:18;33.28;;;22.58;;
61915;SDS011;47868;51.326;6.550;2023-02-15T00:08:44;31.30;;;22.67;;
61915;SDS011;47868;51.326;6.550;2023-02-15T00:11:11;32.63;;;23.17;;
61915;SDS011;47868;51.326;6.550;2023-02-15T00:13:37;33.65;;;23.45;;
61915;SDS011;47868;51.326;6.550;2023-02-15T00:16:08;30.00;;;22.00;;
61915;SDS011;47868;51.326;6.550;2023-02-15T00:18:34;30.58;;;23.15;;
61915;SDS011;47868;51.326;6.550;2023-02-15T00:21:03;31.73;;;23.05;;
61915;SDS011;47868;51.326;6.550;2023-02-15T00:23:30;32.50;;;23.75;;
61915;SDS011;47868;51.326;6.550;2023-02-15T00:26:03;32.83;;;23.55;;
61915;SDS011;47868;51.326;6.550;2023-02-15T00:28:29;31.77;;;23.65;;
61915;SDS011;47868;51.326;6.550;2023-02-15T00:31:01;31.70;;;23.42;;
61915;SDS011;47868;51.326;6.550;2023-02-15T00:33:27;33.17;;;23.00;;
61915;SDS011;47868;51.326;6.550;2023-02-15T00:36:00;32.38;;;23.67;;
61915;SDS011;47868;51.326;6.550;2023-02-15T00:38:27;34.80;;;25.23;;
61915;SDS011;47868;51.326;6.550;2023-02-15T00:40:54;31.05;;;22.65;;
61915;SDS011;47868;51.326;6.550;2023-02-15T00:43:20;35.50;;;24.65;;
61915;SDS011;47868;51.326;6.550;2023-02-15T00:45:46;34.20;;;23.95;;
61915;SDS011;47868;51.326;6.550;2023-02-15T00:48:12;32.33;;;24.73;;
61915;SDS011;47868;51.326;6.550;2023-02-15T00:50:38;32.10;;;24.17;;
61915;SDS011;47868;51.326;6.550;2023-02-15T00:53:04;33.88;;;24.58;;
61915;SDS011;47868;51.326;6.550;2023-02-15T00:55:30;32.90;;;23.95;;
61915;SDS011;47868;51.326;6.550;2023-02-15T00:57:56;34.67;;;25.35;;
61915;SDS011;47868;51.326;6.550;2023-02-15T01:00:22;33.90;;;24.02;;
61915;SDS011;47868;51.326;6.550;2023-02-15T01:02:48;32.40;;;24.20;;
61915;SDS011;47868;51.326;6.550;2023-02-15T01:05:14;34.03;;;24.88;;
61915;SDS011;47868;51.326;6.550;2023-02-15T01:07:40;36.83;;;25.67;;
61915;SDS011;47868;51.326;6.550;2023-02-15T01:10:09;33.03;;;24.52;;
61915;SDS011;47868;51.326;6.550;2023-02-15T01:12:35;35.08;;;24.95;;
61915;SDS011;47868;51.326;6.550;2023-02-15T01:15:01;35.10;;;24.88;;
61915;SDS011;47868;51.326;6.550;2023-02-15T01:17:27;35.17;;;26.08;;
61915;SDS011;47868;51.326;6.550;2023-02-15T01:19:53;33.47;;;23.98;;
61915;SDS011;47868;51.326;6.550;2023-02-15T01:22:19;34.67;;;23.65;;
61915;SDS011;47868;51.326;6.550;2023-02-15T01:24:45;34.78;;;25.65;;
61915;SDS011;47868;51.326;6.550;2023-02-15T01:27:11;32.60;;;23.85;;
61915;SDS011;47868;51.326;6.550;2023-02-15T01:29:37;33.65;;;24.73;;
61915;SDS011;47868;51.326;6.550;2023-02-15T01:32:03;34.17;;;25.42;;
61915;SDS011;47868;51.326;6.550;2023-02-15T01:34:29;32.85;;;24.58;;
61915;SDS011;47868;51.326;6.550;2023-02-15T01:36:55;35.05;;;24.60;;
61915;SDS011;47868;51.326;6.550;2023-02-15T01:39:21;37.05;;;26.35;;
61915;SDS011;47868;51.326;6.550;2023-02-15T01:41:47;39.05;;;26.30;;
61915;SDS011;47868;51.326;6.550;2023-02-15T01:47:00;37.85;;;26.08;;
61915;SDS011;47868;51.326;6.550;2023-02-15T01:49:26;36.58;;;25.30;;
61915;SDS011;47868;51.326;6.550;2023-02-15T01:51:53;38.83;;;26.38;;
61915;SDS011;47868;51.326;6.550;2023-02-15T01:54:27;33.55;;;24.98;;
61915;SDS011;47868;51.326;6.550;2023-02-15T01:56:55;37.35;;;26.38;;
61915;SDS011;47868;51.326;6.550;2023-02-15T01:59:23;35.47;;;25.00;;
61915;SDS011;47868;51.326;6.550;2023-02-15T02:01:53;35.60;;;25.02;;
61915;SDS011;47868;51.326;6.550;2023-02-15T02:04:32;35.20;;;26.23;;
61915;SDS011;47868;51.326;6.550;2023-02-15T02:07:00;37.55;;;25.80;;
61915;SDS011;47868;51.326;6.550;2023-02-15T02:09:27;36.95;;;27.67;;
61915;SDS011;47868;51.326;6.550;2023-02-15T02:11:54;36.03;;;26.98;;
61915;SDS011;47868;51.326;6.550;2023-02-15T02:14:20;38.05;;;26.30;;
61915;SDS011;47868;51.326;6.550;2023-02-15T02:16:57;41.87;;;27.27;;
61915;SDS011;47868;51.326;6.550;2023-02-15T02:27:34;36.40;;;26.95;;
61915;SDS011;47868;51.326;6.550;2023-02-15T02:32:50;35.97;;;25.40;;
61915;SDS011;47868;51.326;6.550;2023-02-15T02:35:30;37.90;;;26.48;;
61915;SDS011;47868;51.326;6.550;2023-02-15T02:38:04;38.28;;;27.17;;
61915;SDS011;47868;51.326;6.550;2023-02-15T02:40:42;38.97;;;27.58;;
61915;SDS011;47868;51.326;6.550;2023-02-15T02:48:05;36.90;;;26.88;;
61915;SDS011;47868;51.326;6.550;2023-02-15T02:50:33;35.95;;;25.02;;
61915;SDS011;47868;51.326;6.550;2023-02-15T02:52:59;38.05;;;26.98;;
61915;SDS011;47868;51.326;6.550;2023-02-15T02:58:29;38.85;;;27.25;;
61915;SDS011;47868;51.326;6.550;2023-02-15T03:00:57;35.55;;;25.70;;
61915;SDS011;47868;51.326;6.550;2023-02-15T03:03:43;36.78;;;25.95;;
61915;SDS011;47868;51.326;6.550;2023-02-15T03:06:12;36.53;;;25.02;;
61915;SDS011;47868;51.326;6.550;2023-02-15T03:08:44;37.80;;;26.63;;
61915;SDS011;47868;51.326;6.550;2023-02-15T03:11:13;38.25;;;27.80;;
61915;SDS011;47868;51.326;6.550;2023-02-15T03:13:39;39.28;;;27.10;;
61915;SDS011;47868;51.326;6.550;2023-02-15T03:16:05;36.70;;;26.70;;
61915;SDS011;47868;51.326;6.550;2023-02-15T03:19:07;38.90;;;26.23;;
61915;SDS011;47868;51.326;6.550;2023-02-15T03:21:42;36.75;;;26.13;;
61915;SDS011;47868;51.326;6.550;2023-02-15T03:24:14;40.38;;;27.85;;
61915;SDS011;47868;51.326;6.550;2023-02-15T03:26:42;38.05;;;27.23;;
61915;SDS011;47868;51.326;6.550;2023-02-15T03:29:09;38.80;;;26.70;;
61915;SDS011;47868;51.326;6.550;2023-02-15T03:31:37;33.85;;;25.45;;
61915;SDS011;47868;51.326;6.550;2023-02-15T03:34:04;37.95;;;25.63;;
61915;SDS011;47868;51.326;6.550;2023-02-15T03:41:51;39.37;;;27.77;;
61915;SDS011;47868;51.326;6.550;2023-02-15T03:44:27;35.57;;;25.43;;
61915;SDS011;47868;51.326;6.550;2023-02-15T03:46:56;36.17;;;25.05;;
61915;SDS011;47868;51.326;6.550;2023-02-15T03:49:25;37.25;;;26.42;;
61915;SDS011;47868;51.326;6.550;2023-02-15T03:51:53;36.30;;;26.50;;
61915;SDS011;47868;51.326;6.550;2023-02-15T03:54:23;37.25;;;26.00;;
61915;SDS011;47868;51.326;6.550;2023-02-15T03:57:13;39.03;;;26.85;;
61915;SDS011;47868;51.326;6.550;2023-02-15T03:59:58;37.88;;;26.23;;
61915;SDS011;47868;51.326;6.550;2023-02-15T04:02:55;36.42;;;26.70;;
61915;SDS011;47868;51.326;6.550;2023-02-15T04:05:24;38.95;;;26.42;;
61915;SDS011;47868;51.326;6.550;2023-02-15T04:07:50;39.17;;;26.00;;
61915;SDS011;47868;51.326;6.550;2023-02-15T04:10:16;35.30;;;25.30;;
61915;SDS011;47868;51.326;6.550;2023-02-15T04:13:01;36.28;;;26.40;;
61915;SDS011;47868;51.326;6.550;2023-02-15T04:15:27;40.88;;;26.90;;
61915;SDS011;47868;51.326;6.550;2023-02-15T04:18:11;38.67;;;26.65;;
61915;SDS011;47868;51.326;6.550;2023-02-15T04:20:37;35.40;;;25.30;;
61915;SDS011;47868;51.326;6.550;2023-02-15T04:23:22;38.83;;;25.92;;
61915;SDS011;47868;51.326;6.550;2023-02-15T04:26:07;38.75;;;27.38;;
61915;SDS011;47868;51.326;6.550;2023-02-15T04:28:32;39.45;;;27.15;;
61915;SDS011;47868;51.326;6.550;2023-02-15T04:30:58;37.60;;;25.13;;
61915;SDS011;47868;51.326;6.550;2023-02-15T04:33:24;37.17;;;25.92;;
61915;SDS011;47868;51.326;6.550;2023-02-15T04:35:50;37.63;;;24.58;;
61915;SDS011;47868;51.326;6.550;2023-02-15T04:38:16;39.20;;;26.20;;
61915;SDS011;47868;51.326;6.550;2023-02-15T04:40:42;36.83;;;25.23;;
61915;SDS011;47868;51.326;6.550;2023-02-15T04:43:08;38.08;;;26.50;;
61915;SDS011;47868;51.326;6.550;2023-02-15T04:45:34;36.58;;;24.65;;
61915;SDS011;47868;51.326;6.550;2023-02-15T04:48:00;36.40;;;25.13;;
61915;SDS011;47868;51.326;6.550;2023-02-15T04:50:26;35.88;;;25.55;;
61915;SDS011;47868;51.326;6.550;2023-02-15T04:52:52;33.70;;;24.40;;
61915;SDS011;47868;51.326;6.550;2023-02-15T04:55:18;38.33;;;26.63;;
61915;SDS011;47868;51.326;6.550;2023-02-15T04:57:45;35.42;;;24.38;;
61915;SDS011;47868;51.326;6.550;2023-02-15T05:00:11;35.93;;;24.67;;
61915;SDS011;47868;51.326;6.550;2023-02-15T05:02:37;34.40;;;25.02;;
61915;SDS011;47868;51.326;6.550;2023-02-15T05:05:03;36.22;;;24.52;;
61915;SDS011;47868;51.326;6.550;2023-02-15T05:07:29;33.88;;;23.23;;
61915;SDS011;47868;51.326;6.550;2023-02-15T05:09:55;36.67;;;24.27;;
61915;SDS011;47868;51.326;6.550;2023-02-15T05:12:21;36.92;;;26.00;;
61915;SDS011;47868;51.326;6.550;2023-02-15T05:14:47;35.20;;;25.02;;
61915;SDS011;47868;51.326;6.550;2023-02-15T05:17:13;34.50;;;23.80;;
61915;SDS011;47868;51.326;6.550;2023-02-15T05:19:39;36.77;;;24.40;;
61915;SDS011;47868;51.326;6.550;2023-02-15T05:22:05;36.50;;;24.88;;
61915;SDS011;47868;51.326;6.550;2023-02-15T05:24:31;34.42;;;24.50;;
61915;SDS011;47868;51.326;6.550;2023-02-15T05:27:15;39.13;;;25.52;;
61915;SDS011;47868;51.326;6.550;2023-02-15T05:30:00;35.60;;;23.35;;
61915;SDS011;47868;51.326;6.550;2023-02-15T05:32:26;35.17;;;25.25;;
61915;SDS011;47868;51.326;6.550;2023-02-15T05:34:52;35.25;;;24.17;;
61915;SDS011;47868;51.326;6.550;2023-02-15T05:37:18;34.47;;;24.60;;
61915;SDS011;47868;51.326;6.550;2023-02-15T05:39:44;33.20;;;24.50;;
61915;SDS011;47868;51.326;6.550;2023-02-15T05:42:10;37.55;;;25.55;;
61915;SDS011;47868;51.326;6.550;2023-02-15T05:44:36;32.38;;;23.42;;
61915;SDS011;47868;51.326;6.550;2023-02-15T05:47:02;35.00;;;24.47;;
61915;SDS011;47868;51.326;6.550;2023-02-15T05:49:28;34.42;;;24.13;;
61915;SDS011;47868;51.326;6.550;2023-02-15T05:51:55;33.38;;;23.77;;
61915;SDS011;47868;51.326;6.550;2023-02-15T05:54:21;35.25;;;24.30;;
61915;SDS011;47868;51.326;6.550;2023-02-15T05:56:47;33.90;;;23.55;;
61915;SDS011;47868;51.326;6.550;2023-02-15T05:59:13;34.92;;;24.42;;
61915;SDS011;47868;51.326;6.550;2023-02-15T06:01:39;34.78;;;24.58;;
61915;SDS011;47868;51.326;6.550;2023-02-15T06:04:05;35.55;;;26.08;;
61915;SDS011;47868;51.326;6.550;2023-02-15T06:06:31;36.70;;;25.10;;
61915;SDS011;47868;51.326;6.550;2023-02-15T06:08:57;35.85;;;25.85;;
61915;SDS011;47868;51.326;6.550;2023-02-15T06:11:23;35.47;;;25.90;;
61915;SDS011;47868;51.326;6.550;2023-02-15T06:13:49;37.00;;;26.67;;
61915;SDS011;47868;51.326;6.550;2023-02-15T06:16:15;39.75;;;25.88;;
61915;SDS011;47868;51.326;6.550;2023-02-15T06:18:41;37.00;;;26.07;;
61915;SDS011;47868;51.326;6.550;2023-02-15T06:21:07;36.30;;;25.67;;
61915;SDS011;47868;51.326;6.550;2023-02-15T06:23:33;34.70;;;23.63;;
61915;SDS011;47868;51.326;6.550;2023-02-15T06:25:59;37.50;;;25.40;;
61915;SDS011;47868;51.326;6.550;2023-02-15T06:28:25;36.22;;;25.35;;
61915;SDS011;47868;51.326;6.550;2023-02-15T06:30:52;38.30;;;25.85;;
61915;SDS011;47868;51.326;6.550;2023-02-15T06:33:18;37.38;;;24.27;;
61915;SDS011;47868;51.326;6.550;2023-02-15T06:35:44;39.53;;;26.23;;
61915;SDS011;47868;51.326;6.550;2023-02-15T06:38:11;33.65;;;24.27;;
61915;SDS011;47868;51.326;6.550;2023-02-15T06:40:37;35.75;;;24.38;;
61915;SDS011;47868;51.326;6.550;2023-02-15T06:43:03;37.63;;;25.30;;
61915;SDS011;47868;51.326;6.550;2023-02-15T06:45:29;36.50;;;24.00;;
61915;SDS011;47868;51.326;6.550;2023-02-15T06:47:55;35.07;;;23.83;;
61915;SDS011;47868;51.326;6.550;2023-02-15T06:50:21;32.58;;;23.02;;
61915;SDS011;47868;51.326;6.550;2023-02-15T06:52:47;36.03;;;23.65;;
61915;SDS011;47868;51.326;6.550;2023-02-15T06:55:13;36.28;;;24.92;;
61915;SDS011;47868;51.326;6.550;2023-02-15T06:57:39;38.13;;;25.77;;
61915;SDS011;47868;51.326;6.550;2023-02-15T07:00:06;33.45;;;23.77;;
61915;SDS011;47868;51.326;6.550;2023-02-15T07:02:33;34.95;;;23.45;;
61915;SDS011;47868;51.326;6.550;2023-02-15T07:04:59;30.80;;;22.77;;
61915;SDS011;47868;51.326;6.550;2023-02-15T07:07:25;32.05;;;22.85;;
61915;SDS011;47868;51.326;6.550;2023-02-15T07:09:50;32.20;;;21.40;;
61915;SDS011;47868;51.326;6.550;2023-02-15T07:12:16;35.13;;;23.40;;
61915;SDS011;47868;51.326;6.550;2023-02-15T07:15:01;31.92;;;22.50;;
61915;SDS011;47868;51.326;6.550;2023-02-15T07:17:32;30.80;;;22.35;;
61915;SDS011;47868;51.326;6.550;2023-02-15T07:20:08;32.15;;;22.73;;
61915;SDS011;47868;51.326;6.550;2023-02-15T07:22:35;29.77;;;20.48;;
61915;SDS011;47868;51.326;6.550;2023-02-15T07:25:02;33.88;;;23.25;;
61915;SDS011;47868;51.326;6.550;2023-02-15T07:27:29;31.58;;;21.35;;
61915;SDS011;47868;51.326;6.550;2023-02-15T07:29:55;32.83;;;22.73;;
61915;SDS011;47868;51.326;6.550;2023-02-15T07:32:21;34.03;;;23.55;;
61915;SDS011;47868;51.326;6.550;2023-02-15T07:34:47;33.13;;;21.95;;
61915;SDS011;47868;51.326;6.550;2023-02-15T07:37:13;31.67;;;22.50;;
61915;SDS011;47868;51.326;6.550;2023-02-15T07:39:39;34.40;;;23.10;;
61915;SDS011;47868;51.326;6.550;2023-02-15T07:42:05;29.75;;;21.25;;
61915;SDS011;47868;51.326;6.550;2023-02-15T07:44:31;33.15;;;22.75;;
61915;SDS011;47868;51.326;6.550;2023-02-15T07:46:57;28.85;;;22.25;;
61915;SDS011;47868;51.326;6.550;2023-02-15T07:49:23;27.67;;;21.25;;
61915;SDS011;47868;51.326;6.550;2023-02-15T07:51:49;32.22;;;22.40;;
61915;SDS011;47868;51.326;6.550;2023-02-15T07:54:15;30.67;;;21.23;;
61915;SDS011;47868;51.326;6.550;2023-02-15T07:56:41;31.08;;;21.83;;
61915;SDS011;47868;51.326;6.550;2023-02-15T07:59:07;33.17;;;22.98;;
61915;SDS011;47868;51.326;6.550;2023-02-15T08:01:35;34.00;;;21.48;;
61915;SDS011;47868;51.326;6.550;2023-02-15T08:04:02;31.45;;;22.02;;
61915;SDS011;47868;51.326;6.550;2023-02-15T08:06:29;32.78;;;22.15;;
61915;SDS011;47868;51.326;6.550;2023-02-15T08:08:56;31.63;;;22.95;;
61915;SDS011;47868;51.326;6.550;2023-02-15T08:11:23;32.53;;;22.30;;
61915;SDS011;47868;51.326;6.550;2023-02-15T08:14:02;34.35;;;23.85;;
61915;SDS011;47868;51.326;6.550;2023-02-15T08:19:02;33.17;;;22.40;;
61915;SDS011;47868;51.326;6.550;2023-02-15T08:21:29;31.35;;;21.48;;
61915;SDS011;47868;51.326;6.550;2023-02-15T08:23:55;33.35;;;22.75;;
61915;SDS011;47868;51.326;6.550;2023-02-15T08:26:22;33.72;;;22.90;;
61915;SDS011;47868;51.326;6.550;2023-02-15T08:28:48;33.13;;;22.17;;
61915;SDS011;47868;51.326;6.550;2023-02-15T08:31:15;30.10;;;22.52;;
61915;SDS011;47868;51.326;6.550;2023-02-15T08:33:42;30.35;;;21.30;;
61915;SDS011;47868;51.326;6.550;2023-02-15T08:36:10;28.10;;;21.67;;
61915;SDS011;47868;51.326;6.550;2023-02-15T08:38:36;32.30;;;21.58;;
61915;SDS011;47868;51.326;6.550;2023-02-15T08:41:36;31.83;;;21.20;;
61915;SDS011;47868;51.326;6.550;2023-02-15T08:43:55;30.30;;;21.40;;
61915;SDS011;47868;51.326;6.550;2023-02-15T08:46:22;34.10;;;21.30;;
61915;SDS011;47868;51.326;6.550;2023-02-15T08:48:49;32.83;;;21.48;;
61915;SDS011;47868;51.326;6.550;2023-02-15T08:51:16;30.02;;;21.80;;
61915;SDS011;47868;51.326;6.550;2023-02-15T08:53:44;27.40;;;20.98;;
61915;SDS011;47868;51.326;6.550;2023-02-15T08:56:11;30.77;;;21.60;;
61915;SDS011;47868;51.326;6.550;2023-02-15T08:58:37;29.30;;;20.75;;
61915;SDS011;47868;51.326;6.550;2023-02-15T09:01:36;29.20;;;21.05;;
61915;SDS011;47868;51.326;6.550;2023-02-15T09:03:57;31.83;;;20.45;;
61915;SDS011;47868;51.326;6.550;2023-02-15T09:06:23;31.13;;;21.23;;
61915;SDS011;47868;51.326;6.550;2023-02-15T09:08:50;31.27;;;21.55;;
61915;SDS011;47868;51.326;6.550;2023-02-15T09:13:47;27.25;;;19.58;;
61915;SDS011;47868;51.326;6.550;2023-02-15T09:16:14;27.23;;;19.85;;
61915;SDS011;47868;51.326;6.550;2023-02-15T09:18:41;32.72;;;20.05;;
61915;SDS011;47868;51.326;6.550;2023-02-15T09:21:15;28.75;;;19.23;;
61915;SDS011;47868;51.326;6.550;2023-02-15T09:23:42;29.92;;;20.58;;
61915;SDS011;47868;51.326;6.550;2023-02-15T09:26:12;25.52;;;18.83;;
61915;SDS011;47868;51.326;6.550;2023-02-15T09:28:39;32.72;;;20.80;;
61915;SDS011;47868;51.326;6.550;2023-02-15T09:31:18;31.98;;;20.20;;
61915;SDS011;47868;51.326;6.550;2023-02-15T09:33:45;26.08;;;18.52;;
61915;SDS011;47868;51.326;6.550;2023-02-15T09:38:44;28.35;;;20.55;;
61915;SDS011;47868;51.326;6.550;2023-02-15T09:49:11;29.77;;;18.98;;
61915;SDS011;47868;51.326;6.550;2023-02-15T09:51:43;28.50;;;20.33;;
61915;SDS011;47868;51.326;6.550;2023-02-15T09:56:39;27.45;;;19.50;;
61915;SDS011;47868;51.326;6.550;2023-02-15T10:06:59;25.73;;;19.17;;
61915;SDS011;47868;51.326;6.550;2023-02-15T10:09:41;27.90;;;18.05;;
61915;SDS011;47868;51.326;6.550;2023-02-15T10:27:41;23.42;;;17.48;;
61915;SDS011;47868;51.326;6.550;2023-02-15T10:30:12;30.48;;;18.83;;
61915;SDS011;47868;51.326;6.550;2023-02-15T10:32:40;30.58;;;18.38;;
61915;SDS011;47868;51.326;6.550;2023-02-15T10:42:47;25.98;;;19.08;;
61915;SDS011;47868;51.326;6.550;2023-02-15T10:55:36;28.20;;;19.27;;
61915;SDS011;47868;51.326;6.550;2023-02-15T11:00:54;23.45;;;18.15;;
61915;SDS011;47868;51.326;6.550;2023-02-15T11:08:25;26.88;;;19.50;;
61915;SDS011;47868;51.326;6.550;2023-02-15T11:10:59;24.63;;;18.27;;
61915;SDS011;47868;51.326;6.550;2023-02-15T11:13:27;26.35;;;17.77;;
61915;SDS011;47868;51.326;6.550;2023-02-15T11:16:03;24.60;;;17.48;;
61915;SDS011;47868;51.326;6.550;2023-02-15T11:21:04;26.00;;;19.77;;
61915;SDS011;47868;51.326;6.550;2023-02-15T11:23:31;22.67;;;17.10;;
61915;SDS011;47868;51.326;6.550;2023-02-15T11:26:00;24.48;;;17.38;;
61915;SDS011;47868;51.326;6.550;2023-02-15T11:28:42;25.98;;;18.27;;
61915;SDS011;47868;51.326;6.550;2023-02-15T11:31:16;25.20;;;18.02;;
61915;SDS011;47868;51.326;6.550;2023-02-15T11:33:44;22.48;;;17.35;;
61915;SDS011;47868;51.326;6.550;2023-02-15T11:36:15;28.60;;;19.00;;
61915;SDS011;47868;51.326;6.550;2023-02-15T11:38:43;24.13;;;18.33;;
61915;SDS011;47868;51.326;6.550;2023-02-15T11:41:11;23.85;;;19.15;;
61915;SDS011;47868;51.326;6.550;2023-02-15T11:43:46;25.60;;;18.63;;
61915;SDS011;47868;51.326;6.550;2023-02-15T11:46:14;25.13;;;17.63;;
61915;SDS011;47868;51.326;6.550;2023-02-15T11:48:40;24.40;;;17.33;;
61915;SDS011;47868;51.326;6.550;2023-02-15T11:51:20;20.67;;;17.25;;
61915;SDS011;47868;51.326;6.550;2023-02-15T11:53:47;25.27;;;18.35;;
61915;SDS011;47868;51.326;6.550;2023-02-15T11:56:14;23.52;;;16.92;;
61915;SDS011;47868;51.326;6.550;2023-02-15T11:58:45;22.13;;;17.00;;
61915;SDS011;47868;51.326;6.550;2023-02-15T12:01:30;25.60;;;17.95;;
61915;SDS011;47868;51.326;6.550;2023-02-15T12:06:34;24.05;;;17.75;;
61915;SDS011;47868;51.326;6.550;2023-02-15T12:09:05;27.02;;;18.17;;
61915;SDS011;47868;51.326;6.550;2023-02-15T12:11:37;23.80;;;17.73;;
61915;SDS011;47868;51.326;6.550;2023-02-15T12:14:04;24.80;;;17.58;;
61915;SDS011;47868;51.326;6.550;2023-02-15T12:16:32;29.23;;;17.38;;
61915;SDS011;47868;51.326;6.550;2023-02-15T12:19:00;22.05;;;17.67;;
61915;SDS011;47868;51.326;6.550;2023-02-15T12:21:39;21.20;;;17.20;;
61915;SDS011;47868;51.326;6.550;2023-02-15T12:24:14;24.73;;;17.90;;
61915;SDS011;47868;51.326;6.550;2023-02-15T12:26:43;20.80;;;17.13;;
61915;SDS011;47868;51.326;6.550;2023-02-15T12:29:15;23.48;;;16.98;;
61915;SDS011;47868;51.326;6.550;2023-02-15T12:31:43;22.88;;;17.55;;
61915;SDS011;47868;51.326;6.550;2023-02-15T12:34:12;23.05;;;17.10;;
61915;SDS011;47868;51.326;6.550;2023-02-15T12:36:40;19.98;;;16.10;;
61915;SDS011;47868;51.326;6.550;2023-02-15T12:44:22;25.38;;;16.67;;
61915;SDS011;47868;51.326;6.550;2023-02-15T12:49:25;19.67;;;16.65;;
61915;SDS011;47868;51.326;6.550;2023-02-15T12:51:52;21.70;;;16.35;;
61915;SDS011;47868;51.326;6.550;2023-02-15T12:56:47;23.30;;;16.20;;
61915;SDS011;47868;51.326;6.550;2023-02-15T12:59:14;22.83;;;16.95;;
61915;SDS011;47868;51.326;6.550;2023-02-15T13:01:45;23.45;;;17.35;;
61915;SDS011;47868;51.326;6.550;2023-02-15T13:06:51;23.90;;;17.15;;
61915;SDS011;47868;51.326;6.550;2023-02-15T13:09:19;21.33;;;17.10;;
61915;SDS011;47868;51.326;6.550;2023-02-15T13:11:45;23.17;;;16.98;;
61915;SDS011;47868;51.326;6.550;2023-02-15T13:14:19;24.30;;;17.25;;
61915;SDS011;47868;51.326;6.550;2023-02-15T13:16:47;23.40;;;17.42;;
61915;SDS011;47868;51.326;6.550;2023-02-15T13:19:18;26.27;;;16.45;;
61915;SDS011;47868;51.326;6.550;2023-02-15T13:21:46;21.60;;;16.45;;
61915;SDS011;47868;51.326;6.550;2023-02-15T13:26:45;22.92;;;17.58;;
61915;SDS011;47868;51.326;6.550;2023-02-15T13:29:22;21.02;;;16.83;;
61915;SDS011;47868;51.326;6.550;2023-02-15T13:31:49;25.83;;;17.15;;
61915;SDS011;47868;51.326;6.550;2023-02-15T13:39:40;20.58;;;16.38;;
61915;SDS011;47868;51.326;6.550;2023-02-15T13:52:30;25.45;;;16.45;;
61915;SDS011;47868;51.326;6.550;2023-02-15T14:31:12;23.63;;;15.63;;
61915;SDS011;47868;51.326;6.550;2023-02-15T14:33:40;21.85;;;17.17;;
61915;SDS011;47868;51.326;6.550;2023-02-15T14:36:07;37.13;;;17.25;;
61915;SDS011;47868;51.326;6.550;2023-02-15T14:41:09;29.02;;;17.20;;
61915;SDS011;47868;51.326;6.550;2023-02-15T14:46:10;22.50;;;16.83;;
61915;SDS011;47868;51.326;6.550;2023-02-15T14:48:46;24.58;;;17.42;;
61915;SDS011;47868;51.326;6.550;2023-02-15T14:53:59;25.60;;;17.38;;
61915;SDS011;47868;51.326;6.550;2023-02-15T14:56:25;23.90;;;16.45;;
61915;SDS011;47868;51.326;6.550;2023-02-15T15:03:57;28.40;;;16.27;;
61915;SDS011;47868;51.326;6.550;2023-02-15T15:06:28;22.80;;;15.88;;
61915;SDS011;47868;51.326;6.550;2023-02-15T15:08:56;22.55;;;16.60;;
61915;SDS011;47868;51.326;6.550;2023-02-15T15:14:00;20.98;;;16.10;;
61915;SDS011;47868;51.326;6.550;2023-02-15T15:19:08;28.17;;;16.38;;
61915;SDS011;47868;51.326;6.550;2023-02-15T15:21:54;24.13;;;16.48;;
61915;SDS011;47868;51.326;6.550;2023-02-15T15:29:49;22.23;;;16.08;;
61915;SDS011;47868;51.326;6.550;2023-02-15T15:32:15;20.00;;;15.55;;
61915;SDS011;47868;51.326;6.550;2023-02-15T15:34:59;18.98;;;15.43;;
61915;SDS011;47868;51.326;6.550;2023-02-15T15:47:53;23.20;;;16.35;;
61915;SDS011;47868;51.326;6.550;2023-02-15T15:50:22;22.73;;;16.70;;
61915;SDS011;47868;51.326;6.550;2023-02-15T15:52:53;22.60;;;16.08;;
61915;SDS011;47868;51.326;6.550;2023-02-15T15:55:20;21.00;;;16.48;;
61915;SDS011;47868;51.326;6.550;2023-02-15T15:57:48;21.02;;;16.52;;
61915;SDS011;47868;51.326;6.550;2023-02-15T16:02:57;21.83;;;15.65;;
61915;SDS011;47868;51.326;6.550;2023-02-15T16:05:23;22.13;;;16.77;;
61915;SDS011;47868;51.326;6.550;2023-02-15T16:07:49;18.30;;;14.85;;
61915;SDS011;47868;51.326;6.550;2023-02-15T16:12:47;23.95;;;17.10;;
61915;SDS011;47868;51.326;6.550;2023-02-15T16:15:15;30.73;;;17.85;;
61915;SDS011;47868;51.326;6.550;2023-02-15T16:17:43;22.70;;;15.88;;
61915;SDS011;47868;51.326;6.550;2023-02-15T16:20:18;20.35;;;16.02;;
61915;SDS011;47868;51.326;6.550;2023-02-15T16:22:48;23.42;;;16.40;;
61915;SDS011;47868;51.326;6.550;2023-02-15T16:27:47;29.70;;;17.00;;
61915;SDS011;47868;51.326;6.550;2023-02-15T16:32:52;22.88;;;16.73;;
61915;SDS011;47868;51.326;6.550;2023-02-15T16:35:19;28.25;;;17.45;;
61915;SDS011;47868;51.326;6.550;2023-02-15T16:37:45;24.05;;;17.63;;
61915;SDS011;47868;51.326;6.550;2023-02-15T16:42:56;24.88;;;18.05;;
61915;SDS011;47868;51.326;6.550;2023-02-15T16:45:24;26.90;;;17.85;;
61915;SDS011;47868;51.326;6.550;2023-02-15T16:47:56;24.40;;;17.75;;
61915;SDS011;47868;51.326;6.550;2023-02-15T16:50:23;25.05;;;17.20;;
61915;SDS011;47868;51.326;6.550;2023-02-15T16:52:50;23.88;;;17.85;;
61915;SDS011;47868;51.326;6.550;2023-02-15T16:55:24;22.15;;;18.40;;
61915;SDS011;47868;51.326;6.550;2023-02-15T16:57:50;24.00;;;17.67;;
61915;SDS011;47868;51.326;6.550;2023-02-15T17:00:21;25.95;;;18.58;;
61915;SDS011;47868;51.326;6.550;2023-02-15T17:02:59;23.50;;;18.15;;
61915;SDS011;47868;51.326;6.550;2023-02-15T17:05:30;24.50;;;17.77;;
61915;SDS011;47868;51.326;6.550;2023-02-15T17:10:34;27.15;;;19.38;;
61915;SDS011;47868;51.326;6.550;2023-02-15T17:13:02;25.88;;;17.63;;
61915;SDS011;47868;51.326;6.550;2023-02-15T17:17:56;23.33;;;17.85;;
61915;SDS011;47868;51.326;6.550;2023-02-15T17:20:22;23.00;;;16.80;;
61915;SDS011;47868;51.326;6.550;2023-02-15T17:22:49;23.95;;;17.48;;
61915;SDS011;47868;51.326;6.550;2023-02-15T17:25:19;23.77;;;18.90;;
61915;SDS011;47868;51.326;6.550;2023-02-15T17:27:49;30.67;;;18.00;;
61915;SDS011;47868;51.326;6.550;2023-02-15T17:30:17;24.20;;;17.40;;
61915;SDS011;47868;51.326;6.550;2023-02-15T17:32:57;20.92;;;16.15;;
61915;SDS011;47868;51.326;6.550;2023-02-15T17:35:24;22.80;;;16.45;;
61915;SDS011;47868;51.326;6.550;2023-02-15T17:37:54;21.40;;;16.77;;
61915;SDS011;47868;51.326;6.550;2023-02-15T17:42:51;20.50;;;16.95;;
61915;SDS011;47868;51.326;6.550;2023-02-15T17:45:17;21.17;;;16.83;;
61915;SDS011;47868;51.326;6.550;2023-02-15T17:47:43;27.90;;;16.08;;
61915;SDS011;47868;51.326;6.550;2023-02-15T17:50:25;22.92;;;16.73;;
61915;SDS011;47868;51.326;6.550;2023-02-15T17:52:51;22.20;;;16.73;;
61915;SDS011;47868;51.326;6.550;2023-02-15T17:55:19;24.10;;;16.98;;
61915;SDS011;47868;51.326;6.550;2023-02-15T17:58:13;20.25;;;16.48;;
61915;SDS011;47868;51.326;6.550;2023-02-15T18:00:43;19.10;;;15.40;;
61915;SDS011;47868;51.326;6.550;2023-02-15T18:03:37;21.92;;;15.80;;
61915;SDS011;47868;51.326;6.550;2023-02-15T18:06:22;20.60;;;15.30;;
61915;SDS011;47868;51.326;6.550;2023-02-15T18:09:14;20.27;;;15.40;;
61915;SDS011;47868;51.326;6.550;2023-02-15T18:11:59;26.02;;;16.02;;
61915;SDS011;47868;51.326;6.550;2023-02-15T18:14:25;19.77;;;15.05;;